<?xml version="1.0" encoding="UTF-8" standalone="no" ?>
<gpx xmlns="http://www.topografix.com/GPX/1/1" xmlns:xsi="http://www.w3.org/2001/XMLSchema-instance" xsi:schemaLocation="http://www.topografix.com/GPX/1/1 http://www.topografix.com/GPX/1/1/gpx.xsd" version="1.1" creator="VisuGPX - https://www.visugpx.com">
  <metadata>
    <name>Edirne-Zagreb</name>
  </metadata>
  <trk>
    <name><![CDATA[Tour d'Europe: étape 698]]></name>
    <extensions>
      <line xmlns="http://www.topografix.com/GPX/gpx_style/0/2">
        <color>000088</color>
        <width>4</width>
      </line>
    </extensions>
    <trkseg>
      <trkpt lat="42.10763" lon="19.08928">
        <ele>52.587396</ele>
        <time>2022-05-27T08:20:16.714Z</time>
      </trkpt>
      <trkpt lat="42.10853" lon="19.08802">
        <ele>51.010488</ele>
        <time>2022-05-27T08:22:05.863Z</time>
      </trkpt>
      <trkpt lat="42.11039" lon="19.08625">
        <ele>45.074214</ele>
        <time>2022-05-27T08:23:01.845Z</time>
      </trkpt>
      <trkpt lat="42.11237" lon="19.08454">
        <ele>46.355284</ele>
        <time>2022-05-27T08:23:58.887Z</time>
      </trkpt>
      <trkpt lat="42.11407" lon="19.08282">
        <ele>54.201945</ele>
        <time>2022-05-27T08:25:12.855Z</time>
      </trkpt>
      <trkpt lat="42.11507" lon="19.08059">
        <ele>61.14419</ele>
        <time>2022-05-27T08:26:41.876Z</time>
      </trkpt>
      <trkpt lat="42.1163" lon="19.07837">
        <ele>63.35637</ele>
        <time>2022-05-27T08:27:42.870Z</time>
      </trkpt>
      <trkpt lat="42.11742" lon="19.07582">
        <ele>57.899471</ele>
        <time>2022-05-27T08:28:26.866Z</time>
      </trkpt>
      <trkpt lat="42.11896" lon="19.07348">
        <ele>56.932231</ele>
        <time>2022-05-27T08:29:23.874Z</time>
      </trkpt>
      <trkpt lat="42.1204" lon="19.07132">
        <ele>61.721957</ele>
        <time>2022-05-27T08:30:27.873Z</time>
      </trkpt>
      <trkpt lat="42.12137" lon="19.06873">
        <ele>56.640525</ele>
        <time>2022-05-27T08:30:50.855Z</time>
      </trkpt>
      <trkpt lat="42.12291" lon="19.06664">
        <ele>54.301614</ele>
        <time>2022-05-27T08:31:27.862Z</time>
      </trkpt>
      <trkpt lat="42.12297" lon="19.06416">
        <ele>65.67956</ele>
        <time>2022-05-27T08:33:07.858Z</time>
      </trkpt>
      <trkpt lat="42.12472" lon="19.06404">
        <ele>80.314162</ele>
        <time>2022-05-27T08:34:51.884Z</time>
      </trkpt>
      <trkpt lat="42.12664" lon="19.06499">
        <ele>82.971376</ele>
        <time>2022-05-27T08:36:25.884Z</time>
      </trkpt>
      <trkpt lat="42.12882" lon="19.06378">
        <ele>72.111503</ele>
        <time>2022-05-27T08:37:07.855Z</time>
      </trkpt>
      <trkpt lat="42.1312" lon="19.06319">
        <ele>69.727781</ele>
        <time>2022-05-27T08:37:49.892Z</time>
      </trkpt>
      <trkpt lat="42.13328" lon="19.06324">
        <ele>72.027009</ele>
        <time>2022-05-27T08:38:32.834Z</time>
      </trkpt>
      <trkpt lat="42.13558" lon="19.06361">
        <ele>68.74577</ele>
        <time>2022-05-27T08:40:56.864Z</time>
      </trkpt>
      <trkpt lat="42.13698" lon="19.06131">
        <ele>62.924616</ele>
        <time>2022-05-27T08:41:43.863Z</time>
      </trkpt>
      <trkpt lat="42.13709" lon="19.05865">
        <ele>59.040856</ele>
        <time>2022-05-27T08:42:21.877Z</time>
      </trkpt>
      <trkpt lat="42.13708" lon="19.05537">
        <ele>51.688578</ele>
        <time>2022-05-27T08:43:01.882Z</time>
      </trkpt>
      <trkpt lat="42.13825" lon="19.05219">
        <ele>49.828676</ele>
        <time>2022-05-27T08:43:38.873Z</time>
      </trkpt>
      <trkpt lat="42.13938" lon="19.04978">
        <ele>54.103318</ele>
        <time>2022-05-27T08:44:31.876Z</time>
      </trkpt>
      <trkpt lat="42.14111" lon="19.0482">
        <ele>62.133807</ele>
        <time>2022-05-27T08:45:42.876Z</time>
      </trkpt>
      <trkpt lat="42.14208" lon="19.04612">
        <ele>69.996577</ele>
        <time>2022-05-27T08:46:55.942Z</time>
      </trkpt>
      <trkpt lat="42.1427" lon="19.04393">
        <ele>68.214115</ele>
        <time>2022-05-27T08:48:10.880Z</time>
      </trkpt>
      <trkpt lat="42.1426" lon="19.04151">
        <ele>63.490245</ele>
        <time>2022-05-27T08:48:57.876Z</time>
      </trkpt>
      <trkpt lat="42.14278" lon="19.0391">
        <ele>62.665539</ele>
        <time>2022-05-27T08:49:58.855Z</time>
      </trkpt>
      <trkpt lat="42.14375" lon="19.03672">
        <ele>62.628373</ele>
        <time>2022-05-27T08:51:10.867Z</time>
      </trkpt>
      <trkpt lat="42.14551" lon="19.03578">
        <ele>66.008923</ele>
        <time>2022-05-27T08:52:35.866Z</time>
      </trkpt>
      <trkpt lat="42.14741" lon="19.03508">
        <ele>73.127515</ele>
        <time>2022-05-27T08:54:15.868Z</time>
      </trkpt>
      <trkpt lat="42.14919" lon="19.03573">
        <ele>82.19453</ele>
        <time>2022-05-27T08:55:54.894Z</time>
      </trkpt>
      <trkpt lat="42.15101" lon="19.03659">
        <ele>95.877299</ele>
        <time>2022-05-27T08:58:16.846Z</time>
      </trkpt>
      <trkpt lat="42.15229" lon="19.03495">
        <ele>110.136722</ele>
        <time>2022-05-27T09:00:58.853Z</time>
      </trkpt>
      <trkpt lat="42.15354" lon="19.03316">
        <ele>117.192916</ele>
        <time>2022-05-27T09:02:50.849Z</time>
      </trkpt>
      <trkpt lat="42.15532" lon="19.03201">
        <ele>123.134592</ele>
        <time>2022-05-27T09:04:41.884Z</time>
      </trkpt>
      <trkpt lat="42.15694" lon="19.03032">
        <ele>128.251384</ele>
        <time>2022-05-27T09:10:51.921Z</time>
      </trkpt>
      <trkpt lat="42.15794" lon="19.02805">
        <ele>135.782173</ele>
        <time>2022-05-27T09:12:35.857Z</time>
      </trkpt>
      <trkpt lat="42.15843" lon="19.02451">
        <ele>137.520983</ele>
        <time>2022-05-27T09:21:22.857Z</time>
      </trkpt>
      <trkpt lat="42.16044" lon="19.0213">
        <ele>141.117845</ele>
        <time>2022-05-27T09:21:54.863Z</time>
      </trkpt>
      <trkpt lat="42.16274" lon="19.01904">
        <ele>114.672032</ele>
        <time>2022-05-27T09:22:30.839Z</time>
      </trkpt>
      <trkpt lat="42.16433" lon="19.01639">
        <ele>109.936193</ele>
        <time>2022-05-27T09:23:08.863Z</time>
      </trkpt>
      <trkpt lat="42.16553" lon="19.01369">
        <ele>114.589846</ele>
        <time>2022-05-27T09:24:06.852Z</time>
      </trkpt>
      <trkpt lat="42.16681" lon="19.01162">
        <ele>122.05793</ele>
        <time>2022-05-27T09:25:20.889Z</time>
      </trkpt>
      <trkpt lat="42.16813" lon="19.01007">
        <ele>138.086687</ele>
        <time>2022-05-27T09:27:28.867Z</time>
      </trkpt>
      <trkpt lat="42.16999" lon="19.01027">
        <ele>151.039896</ele>
        <time>2022-05-27T09:29:56.876Z</time>
      </trkpt>
      <trkpt lat="42.17136" lon="19.00872">
        <ele>172.976978</ele>
        <time>2022-05-27T09:32:16.865Z</time>
      </trkpt>
      <trkpt lat="42.17307" lon="19.00775">
        <ele>178.369547</ele>
        <time>2022-05-27T09:35:02.877Z</time>
      </trkpt>
      <trkpt lat="42.17313" lon="19.00538">
        <ele>180.745989</ele>
        <time>2022-05-27T09:37:32.868Z</time>
      </trkpt>
      <trkpt lat="42.17215" lon="19.00332">
        <ele>192.699785</ele>
        <time>2022-05-27T09:39:51.876Z</time>
      </trkpt>
      <trkpt lat="42.17283" lon="19.001">
        <ele>214.577993</ele>
        <time>2022-05-27T09:42:25.880Z</time>
      </trkpt>
      <trkpt lat="42.17431" lon="18.99964">
        <ele>228.960124</ele>
        <time>2022-05-27T09:44:47.896Z</time>
      </trkpt>
      <trkpt lat="42.17557" lon="18.99769">
        <ele>234.71506</ele>
        <time>2022-05-27T09:47:10.888Z</time>
      </trkpt>
      <trkpt lat="42.1781" lon="18.99693">
        <ele>229.1669</ele>
        <time>2022-05-27T09:50:14.880Z</time>
      </trkpt>
      <trkpt lat="42.18013" lon="18.99605">
        <ele>217.000912</ele>
        <time>2022-05-27T09:50:36.868Z</time>
      </trkpt>
      <trkpt lat="42.18221" lon="18.9945">
        <ele>202.692834</ele>
        <time>2022-05-27T09:51:02.862Z</time>
      </trkpt>
      <trkpt lat="42.18415" lon="18.9938">
        <ele>187.411314</ele>
        <time>2022-05-27T09:51:23.893Z</time>
      </trkpt>
      <trkpt lat="42.18503" lon="18.99099">
        <ele>173.813555</ele>
        <time>2022-05-27T09:51:44.878Z</time>
      </trkpt>
      <trkpt lat="42.18633" lon="18.98862">
        <ele>156.598401</ele>
        <time>2022-05-27T09:52:05.854Z</time>
      </trkpt>
      <trkpt lat="42.18845" lon="18.98892">
        <ele>138.552658</ele>
        <time>2022-05-27T09:52:26.911Z</time>
      </trkpt>
      <trkpt lat="42.19045" lon="18.98832">
        <ele>120.451296</ele>
        <time>2022-05-27T09:52:50.853Z</time>
      </trkpt>
      <trkpt lat="42.19179" lon="18.98584">
        <ele>109.19542</ele>
        <time>2022-05-27T09:53:15.869Z</time>
      </trkpt>
      <trkpt lat="42.19381" lon="18.98416">
        <ele>96.679911</ele>
        <time>2022-05-27T09:53:37.911Z</time>
      </trkpt>
      <trkpt lat="42.19609" lon="18.98308">
        <ele>82.082816</ele>
        <time>2022-05-27T09:54:03.876Z</time>
      </trkpt>
      <trkpt lat="42.19665" lon="18.98011">
        <ele>76.360407</ele>
        <time>2022-05-27T09:54:31.857Z</time>
      </trkpt>
      <trkpt lat="42.19793" lon="18.97807">
        <ele>78.773225</ele>
        <time>2022-05-27T09:55:29.882Z</time>
      </trkpt>
      <trkpt lat="42.19731" lon="18.97489">
        <ele>71.057164</ele>
        <time>2022-05-27T09:56:00.862Z</time>
      </trkpt>
      <trkpt lat="42.19714" lon="18.97134">
        <ele>62.853483</ele>
        <time>2022-05-27T09:56:33.861Z</time>
      </trkpt>
      <trkpt lat="42.19832" lon="18.96865">
        <ele>64.558211</ele>
        <time>2022-05-27T09:57:17.882Z</time>
      </trkpt>
      <trkpt lat="42.19942" lon="18.9666">
        <ele>64.923864</ele>
        <time>2022-05-27T09:58:21.874Z</time>
      </trkpt>
      <trkpt lat="42.20048" lon="18.96395">
        <ele>67.773914</ele>
        <time>2022-05-27T11:35:56.889Z</time>
      </trkpt>
      <trkpt lat="42.20155" lon="18.96169">
        <ele>77.799705</ele>
        <time>2022-05-27T11:37:20.897Z</time>
      </trkpt>
      <trkpt lat="42.2028" lon="18.95959">
        <ele>85.728834</ele>
        <time>2022-05-27T11:38:53.868Z</time>
      </trkpt>
      <trkpt lat="42.20397" lon="18.95751">
        <ele>91.864648</ele>
        <time>2022-05-27T11:40:24.868Z</time>
      </trkpt>
      <trkpt lat="42.20376" lon="18.95445">
        <ele>100.15182</ele>
        <time>2022-05-27T11:42:08.866Z</time>
      </trkpt>
      <trkpt lat="42.20393" lon="18.95178">
        <ele>106.043126</ele>
        <time>2022-05-27T11:43:30.878Z</time>
      </trkpt>
      <trkpt lat="42.20538" lon="18.94928">
        <ele>105.89111</ele>
        <time>2022-05-27T11:44:28.854Z</time>
      </trkpt>
      <trkpt lat="42.20692" lon="18.94651">
        <ele>90.803914</ele>
        <time>2022-05-27T11:45:02.867Z</time>
      </trkpt>
      <trkpt lat="42.20868" lon="18.94533">
        <ele>94.126605</ele>
        <time>2022-05-27T11:46:16.870Z</time>
      </trkpt>
      <trkpt lat="42.21014" lon="18.94382">
        <ele>110.915901</ele>
        <time>2022-05-27T11:48:02.870Z</time>
      </trkpt>
      <trkpt lat="42.21042" lon="18.94146">
        <ele>119.891162</ele>
        <time>2022-05-27T11:52:31.869Z</time>
      </trkpt>
      <trkpt lat="42.21021" lon="18.93888">
        <ele>128.660772</ele>
        <time>2022-05-27T11:54:34.864Z</time>
      </trkpt>
      <trkpt lat="42.21024" lon="18.9366">
        <ele>138.747934</ele>
        <time>2022-05-27T11:56:36.864Z</time>
      </trkpt>
      <trkpt lat="42.20978" lon="18.93399">
        <ele>144.794723</ele>
        <time>2022-05-27T11:58:24.859Z</time>
      </trkpt>
      <trkpt lat="42.20876" lon="18.93198">
        <ele>152.566124</ele>
        <time>2022-05-27T12:00:11.850Z</time>
      </trkpt>
      <trkpt lat="42.20821" lon="18.92913">
        <ele>169.15313</ele>
        <time>2022-05-27T12:03:35.872Z</time>
      </trkpt>
      <trkpt lat="42.20937" lon="18.92784">
        <ele>178.85389</ele>
        <time>2022-05-27T12:05:38.843Z</time>
      </trkpt>
      <trkpt lat="42.21095" lon="18.92904">
        <ele>182.446023</ele>
        <time>2022-05-27T12:07:34.836Z</time>
      </trkpt>
      <trkpt lat="42.21274" lon="18.93041">
        <ele>183.928937</ele>
        <time>2022-05-27T12:09:02.857Z</time>
      </trkpt>
      <trkpt lat="42.21438" lon="18.9316">
        <ele>193.107112</ele>
        <time>2022-05-27T12:10:29.861Z</time>
      </trkpt>
      <trkpt lat="42.21543" lon="18.93012">
        <ele>206.221547</ele>
        <time>2022-05-27T12:18:37.914Z</time>
      </trkpt>
      <trkpt lat="42.21534" lon="18.92773">
        <ele>210.462502</ele>
        <time>2022-05-27T12:19:56.874Z</time>
      </trkpt>
      <trkpt lat="42.21603" lon="18.92515">
        <ele>208.568568</ele>
        <time>2022-05-27T12:20:45.870Z</time>
      </trkpt>
      <trkpt lat="42.21624" lon="18.92198">
        <ele>201.608527</ele>
        <time>2022-05-27T12:21:25.854Z</time>
      </trkpt>
      <trkpt lat="42.21773" lon="18.91974">
        <ele>187.039722</ele>
        <time>2022-05-27T12:21:52.850Z</time>
      </trkpt>
      <trkpt lat="42.21849" lon="18.91719">
        <ele>174.499878</ele>
        <time>2022-05-27T12:22:12.913Z</time>
      </trkpt>
      <trkpt lat="42.22002" lon="18.91404">
        <ele>167.326471</ele>
        <time>2022-05-27T12:22:44.862Z</time>
      </trkpt>
      <trkpt lat="42.221" lon="18.91176">
        <ele>166.318121</ele>
        <time>2022-05-27T12:23:22.871Z</time>
      </trkpt>
      <trkpt lat="42.22334" lon="18.91122">
        <ele>162.601</ele>
        <time>2022-05-27T12:24:06.898Z</time>
      </trkpt>
      <trkpt lat="42.22607" lon="18.91138">
        <ele>149.021332</ele>
        <time>2022-05-27T12:24:44.874Z</time>
      </trkpt>
      <trkpt lat="42.22844" lon="18.91151">
        <ele>139.540051</ele>
        <time>2022-05-27T12:25:12.857Z</time>
      </trkpt>
      <trkpt lat="42.22993" lon="18.90923">
        <ele>142.605023</ele>
        <time>2022-05-27T12:26:20.866Z</time>
      </trkpt>
      <trkpt lat="42.23176" lon="18.90881">
        <ele>149.640564</ele>
        <time>2022-05-27T12:27:47.877Z</time>
      </trkpt>
      <trkpt lat="42.23401" lon="18.90776">
        <ele>145.185896</ele>
        <time>2022-05-27T12:28:28.865Z</time>
      </trkpt>
      <trkpt lat="42.23593" lon="18.90694">
        <ele>143.813084</ele>
        <time>2022-05-27T12:29:29.868Z</time>
      </trkpt>
      <trkpt lat="42.23786" lon="18.90613">
        <ele>150.508102</ele>
        <time>2022-05-27T12:31:06.852Z</time>
      </trkpt>
      <trkpt lat="42.23977" lon="18.90547">
        <ele>158.350857</ele>
        <time>2022-05-27T12:32:48.852Z</time>
      </trkpt>
      <trkpt lat="42.2413" lon="18.90394">
        <ele>164.26987</ele>
        <time>2022-05-27T12:34:18.874Z</time>
      </trkpt>
      <trkpt lat="42.2432" lon="18.9034">
        <ele>167.199476</ele>
        <time>2022-05-27T12:35:40.859Z</time>
      </trkpt>
      <trkpt lat="42.24446" lon="18.90238">
        <ele>166.748774</ele>
        <time>2022-05-27T12:38:54.865Z</time>
      </trkpt>
      <trkpt lat="42.24701" lon="18.90291">
        <ele>156.740261</ele>
        <time>2022-05-27T12:39:35.872Z</time>
      </trkpt>
      <trkpt lat="42.24942" lon="18.90149">
        <ele>147.530978</ele>
        <time>2022-05-27T12:40:09.847Z</time>
      </trkpt>
      <trkpt lat="42.25221" lon="18.90012">
        <ele>136.224421</ele>
        <time>2022-05-27T12:40:47.871Z</time>
      </trkpt>
      <trkpt lat="42.25459" lon="18.9004">
        <ele>119.029769</ele>
        <time>2022-05-27T12:41:27.870Z</time>
      </trkpt>
      <trkpt lat="42.25587" lon="18.89812">
        <ele>111.779668</ele>
        <time>2022-05-27T12:42:05.862Z</time>
      </trkpt>
      <trkpt lat="42.25759" lon="18.89624">
        <ele>113.222507</ele>
        <time>2022-05-27T13:01:21.874Z</time>
      </trkpt>
      <trkpt lat="42.25995" lon="18.8975">
        <ele>105.425616</ele>
        <time>2022-05-27T13:02:01.866Z</time>
      </trkpt>
      <trkpt lat="42.26168" lon="18.89743">
        <ele>102.873908</ele>
        <time>2022-05-27T13:02:40.849Z</time>
      </trkpt>
      <trkpt lat="42.26345" lon="18.89599">
        <ele>112.205334</ele>
        <time>2022-05-27T13:03:48.863Z</time>
      </trkpt>
      <trkpt lat="42.2654" lon="18.89571">
        <ele>111.297969</ele>
        <time>2022-05-27T13:05:00.898Z</time>
      </trkpt>
      <trkpt lat="42.26742" lon="18.89488">
        <ele>98.582944</ele>
        <time>2022-05-27T13:05:31.871Z</time>
      </trkpt>
      <trkpt lat="42.26935" lon="18.89558">
        <ele>81.356263</ele>
        <time>2022-05-27T13:05:57.874Z</time>
      </trkpt>
      <trkpt lat="42.27002" lon="18.89247">
        <ele>66.110844</ele>
        <time>2022-05-27T13:06:24.844Z</time>
      </trkpt>
      <trkpt lat="42.27143" lon="18.89055">
        <ele>75.012823</ele>
        <time>2022-05-27T13:08:03.831Z</time>
      </trkpt>
      <trkpt lat="42.27358" lon="18.89135">
        <ele>72.416704</ele>
        <time>2022-05-27T13:09:02.834Z</time>
      </trkpt>
      <trkpt lat="42.27509" lon="18.88835">
        <ele>66.361375</ele>
        <time>2022-05-27T13:09:44.839Z</time>
      </trkpt>
      <trkpt lat="42.2764" lon="18.88658">
        <ele>75.99545</ele>
        <time>2022-05-27T13:11:49.838Z</time>
      </trkpt>
      <trkpt lat="42.27604" lon="18.88417">
        <ele>59.054482</ele>
        <time>2022-05-27T13:13:30.835Z</time>
      </trkpt>
      <trkpt lat="42.27764" lon="18.88084">
        <ele>45.225463</ele>
        <time>2022-05-27T13:19:20.858Z</time>
      </trkpt>
      <trkpt lat="42.27927" lon="18.88191">
        <ele>46.666004</ele>
        <time>2022-05-27T13:20:36.871Z</time>
      </trkpt>
      <trkpt lat="42.2805" lon="18.87986">
        <ele>50.925047</ele>
        <time>2022-05-27T13:22:11.926Z</time>
      </trkpt>
      <trkpt lat="42.28113" lon="18.87724">
        <ele>53.721081</ele>
        <time>2022-05-27T13:23:34.849Z</time>
      </trkpt>
      <trkpt lat="42.28146" lon="18.87465">
        <ele>47.689787</ele>
        <time>2022-05-27T13:24:35.832Z</time>
      </trkpt>
      <trkpt lat="42.28153" lon="18.87165">
        <ele>42.890576</ele>
        <time>2022-05-27T13:26:16.857Z</time>
      </trkpt>
      <trkpt lat="42.28145" lon="18.8691">
        <ele>43.301581</ele>
        <time>2022-05-27T13:27:25.885Z</time>
      </trkpt>
      <trkpt lat="42.28132" lon="18.86632">
        <ele>42.903158</ele>
        <time>2022-05-27T13:28:32.853Z</time>
      </trkpt>
      <trkpt lat="42.28178" lon="18.8646">
        <ele>46.659268</ele>
        <time>2022-05-27T13:29:55.891Z</time>
      </trkpt>
      <trkpt lat="42.28322" lon="18.86381">
        <ele>53.867628</ele>
        <time>2022-05-27T13:31:10.840Z</time>
      </trkpt>
      <trkpt lat="42.28372" lon="18.86165">
        <ele>59.050976</ele>
        <time>2022-05-27T13:33:01.833Z</time>
      </trkpt>
      <trkpt lat="42.28268" lon="18.85966">
        <ele>66.89641</ele>
        <time>2022-05-27T13:34:48.829Z</time>
      </trkpt>
      <trkpt lat="42.28342" lon="18.85716">
        <ele>71.474131</ele>
        <time>2022-05-27T13:36:08.845Z</time>
      </trkpt>
      <trkpt lat="42.28542" lon="18.85449">
        <ele>64.932411</ele>
        <time>2022-05-27T13:36:45.824Z</time>
      </trkpt>
      <trkpt lat="42.28692" lon="18.85196">
        <ele>49.837169</ele>
        <time>2022-05-27T13:37:24.832Z</time>
      </trkpt>
      <trkpt lat="42.28554" lon="18.85005">
        <ele>46.422957</ele>
        <time>2022-05-27T13:38:21.831Z</time>
      </trkpt>
      <trkpt lat="42.28547" lon="18.84711">
        <ele>47.038947</ele>
        <time>2022-05-27T13:39:14.838Z</time>
      </trkpt>
      <trkpt lat="42.28505" lon="18.84422">
        <ele>47.350351</ele>
        <time>2022-05-27T13:40:13.831Z</time>
      </trkpt>
      <trkpt lat="42.28443" lon="18.84121">
        <ele>47.432853</ele>
        <time>2022-05-27T13:41:15.825Z</time>
      </trkpt>
      <trkpt lat="42.28326" lon="18.83894">
        <ele>49.689897</ele>
        <time>2022-05-27T13:42:15.832Z</time>
      </trkpt>
      <trkpt lat="42.28281" lon="18.83788">
        <ele>49.689897</ele>
        <time>2022-05-27T13:44:22.050Z</time>
      </trkpt>
    </trkseg>
  </trk>
</gpx>